Observations for Trim Market St
| Time | AQI | Temp °C | Hum % | Pres Pa | CO μg/m³ | H₂S μg/m³ | NO μg/m³ | NO₂ μg/m³ | O₃ μg/m³ | SO₂ μg/m³ | PM1 μg/m³ | PM2.5 μg/m³ | PM10 μg/m³ |
|---|---|---|---|---|---|---|---|---|---|---|---|---|---|
| Monday 13 July 2026 | |||||||||||||
| 08:32 | 1 | 26 | 50 | 55,991 | 0 | 0 | 0 | 0 | 5.35 | 0 | 1.43 | 4 | 4.54 |
| 08:31 | 1 | 25.9 | 50 | 55,668 | 0 | 0 | 0 | 0 | 6.21 | 0 | 1.43 | 4.51 | 5.29 |
| 08:30 | 1 | 25.8 | 50 | 55,591 | 0 | 0 | 0 | 0 | 13.79 | 0 | 0.71 | 3.47 | 4.55 |
| 08:29 | 1 | 25.7 | 50 | 55,617 | 0 | 0 | 0 | 0 | 10.25 | 0 | 1.43 | 4.5 | 6.04 |
| 08:28 | 1 | 25.6 | 50 | 55,635 | 0 | 0 | 0 | 0 | 6.4 | 0 | 0.71 | 4.49 | 5.3 |
| 08:27 | 1 | 25.6 | 51 | 55,666 | 0 | 0 | 0 | 0 | 8.2 | 0 | 1.43 | 3.97 | 4.56 |
| 08:26 | 1 | 25.5 | 51 | 55,725 | 0 | 0 | 0 | 0 | 7.61 | 0 | 1.43 | 3.96 | 4.56 |
| 08:25 | 1 | 25.4 | 51 | 55,763 | 0 | 0 | 0 | 0 | 3.45 | 0 | 2.14 | 4.98 | 6.79 |
| 08:24 | 1 | 25.4 | 51 | 55,807 | 0 | 0 | 0 | 0 | 7.19 | 0 | 2.85 | 4.97 | 7.53 |
| 08:23 | 1 | 25.3 | 51 | 55,862 | 0 | 0 | 0 | 0 | 5.64 | 0 | 2.85 | 5.47 | 7.53 |
| 08:22 | 1 | 25.3 | 52 | 55,936 | 0 | 0 | 0 | 0 | 5.25 | 0 | 2.14 | 4.95 | 6.06 |
| 08:21 | 1 | 25.2 | 52 | 56,023 | 0 | 0 | 0 | 0 | 2.78 | 0 | 2.14 | 5.96 | 7.53 |
| 08:20 | 1 | 25.2 | 52 | 56,097 | 0 | 0 | 0 | 0 | 3.78 | 0 | 2.85 | 6.97 | 9.73 |
| 08:19 | 1 | 25.1 | 52 | 56,253 | 0 | 0 | 0 | 0 | 8.13 | 0 | 3.56 | 5.93 | 7.53 |
| 08:17 | 1 | 25 | 53 | 56,325 | 0.01 | 0 | 0.11 | 0 | 2.46 | 0 | 2.85 | 5.4 | 6.8 |
| 08:12 | 1 | 24.6 | 54 | 56,887 | 0.06 | 0 | 0 | 0 | 1.97 | 0 | 4.28 | 6.85 | 8.97 |
| 08:08 | 1 | 24.3 | 55 | 57,308 | 0.03 | 0 | 0.23 | 0 | 3.15 | 0 | 4.28 | 6.79 | 8.96 |
| 08:05 | 1 | 24.1 | 56 | 57,738 | 0.06 | 0 | 0 | 0 | 0 | 0 | 2.85 | 5.73 | 8.24 |
| 08:01 | 1 | 23.8 | 57 | 57,776 | 0.06 | 0 | 0 | 0 | 0 | 0 | 2.85 | 5.19 | 9.64 |
| 08:00 | 1 | 23.7 | 57 | 57,771 | 0.06 | 0 | 0.29 | 0 | 5.72 | 0 | 0.71 | 3.67 | 5.42 |